sensor_id;sensor_type;location;lat;lon;timestamp;pressure;altitude;pressure_sealevel;temperature;humidity
63607;BME280;71992;52.478;-1.918;2023-11-19T00:01:08;98614.84;;;10.22;100.00
63607;BME280;71992;52.478;-1.918;2023-11-19T00:03:39;98611.47;;;10.20;100.00
63607;BME280;71992;52.478;-1.918;2023-11-19T00:06:11;98617.63;;;10.21;100.00
63607;BME280;71992;52.478;-1.918;2023-11-19T00:08:43;98626.63;;;10.20;100.00
63607;BME280;71992;52.478;-1.918;2023-11-19T00:11:14;98631.09;;;10.19;100.00
63607;BME280;71992;52.478;-1.918;2023-11-19T00:13:49;98615.09;;;10.19;100.00
63607;BME280;71992;52.478;-1.918;2023-11-19T00:16:19;98623.34;;;10.16;100.00
63607;BME280;71992;52.478;-1.918;2023-11-19T00:18:51;98623.47;;;10.15;100.00
63607;BME280;71992;52.478;-1.918;2023-11-19T00:21:30;98599.59;;;10.13;100.00
63607;BME280;71992;52.478;-1.918;2023-11-19T00:24:01;98595.09;;;10.14;100.00
63607;BME280;71992;52.478;-1.918;2023-11-19T00:26:32;98611.13;;;10.14;100.00
63607;BME280;71992;52.478;-1.918;2023-11-19T00:29:06;98606.63;;;10.14;100.00
63607;BME280;71992;52.478;-1.918;2023-11-19T00:31:43;98606.03;;;10.11;100.00
63607;BME280;71992;52.478;-1.918;2023-11-19T00:34:14;98591.09;;;10.08;100.00
63607;BME280;71992;52.478;-1.918;2023-11-19T00:36:49;98598.41;;;10.06;100.00
63607;BME280;71992;52.478;-1.918;2023-11-19T00:39:20;98600.09;;;10.07;100.00
63607;BME280;71992;52.478;-1.918;2023-11-19T00:41:54;98606.28;;;10.08;100.00
63607;BME280;71992;52.478;-1.918;2023-11-19T00:44:27;98595.50;;;10.09;100.00
63607;BME280;71992;52.478;-1.918;2023-11-19T00:46:58;98578.66;;;10.09;100.00
63607;BME280;71992;52.478;-1.918;2023-11-19T00:49:30;98601.78;;;10.08;100.00
63607;BME280;71992;52.478;-1.918;2023-11-19T00:52:01;98619.59;;;10.08;100.00
63607;BME280;71992;52.478;-1.918;2023-11-19T00:54:35;98629.31;;;10.09;100.00
63607;BME280;71992;52.478;-1.918;2023-11-19T00:57:06;98646.28;;;10.08;100.00
63607;BME280;71992;52.478;-1.918;2023-11-19T00:59:41;98636.47;;;10.08;100.00
63607;BME280;71992;52.478;-1.918;2023-11-19T01:02:12;98648.84;;;10.09;100.00
63607;BME280;71992;52.478;-1.918;2023-11-19T01:04:46;98641.78;;;10.08;100.00
63607;BME280;71992;52.478;-1.918;2023-11-19T01:07:18;98636.34;;;10.10;100.00
63607;BME280;71992;52.478;-1.918;2023-11-19T01:09:49;98629.19;;;10.10;100.00
63607;BME280;71992;52.478;-1.918;2023-11-19T01:12:23;98617.56;;;10.11;100.00
63607;BME280;71992;52.478;-1.918;2023-11-19T01:14:57;98626.28;;;10.13;100.00
63607;BME280;71992;52.478;-1.918;2023-11-19T01:17:31;98621.66;;;10.15;100.00
63607;BME280;71992;52.478;-1.918;2023-11-19T01:20:03;98623.63;;;10.13;100.00
63607;BME280;71992;52.478;-1.918;2023-11-19T01:22:38;98625.41;;;10.13;100.00
63607;BME280;71992;52.478;-1.918;2023-11-19T01:25:08;98629.41;;;10.18;100.00
63607;BME280;71992;52.478;-1.918;2023-11-19T01:27:39;98631.69;;;10.23;100.00
63607;BME280;71992;52.478;-1.918;2023-11-19T01:30:13;98635.94;;;10.25;100.00
63607;BME280;71992;52.478;-1.918;2023-11-19T01:32:46;98617.13;;;10.27;100.00
63607;BME280;71992;52.478;-1.918;2023-11-19T01:35:17;98615.31;;;10.28;100.00
63607;BME280;71992;52.478;-1.918;2023-11-19T01:37:49;98614.34;;;10.29;100.00
63607;BME280;71992;52.478;-1.918;2023-11-19T01:40:20;98613.41;;;10.30;100.00
63607;BME280;71992;52.478;-1.918;2023-11-19T01:42:52;98630.97;;;10.32;100.00
63607;BME280;71992;52.478;-1.918;2023-11-19T01:45:30;98615.94;;;10.31;100.00
63607;BME280;71992;52.478;-1.918;2023-11-19T01:48:04;98619.81;;;10.27;100.00
63607;BME280;71992;52.478;-1.918;2023-11-19T01:50:39;98625.25;;;10.25;100.00
63607;BME280;71992;52.478;-1.918;2023-11-19T01:53:10;98643.09;;;10.25;100.00
63607;BME280;71992;52.478;-1.918;2023-11-19T01:55:41;98627.94;;;10.25;100.00
63607;BME280;71992;52.478;-1.918;2023-11-19T01:58:12;98641.16;;;10.27;100.00
63607;BME280;71992;52.478;-1.918;2023-11-19T02:00:47;98641.91;;;10.29;100.00
63607;BME280;71992;52.478;-1.918;2023-11-19T02:03:18;98624.81;;;10.32;100.00
63607;BME280;71992;52.478;-1.918;2023-11-19T02:05:50;98623.81;;;10.33;100.00
63607;BME280;71992;52.478;-1.918;2023-11-19T02:08:22;98621.28;;;10.31;100.00
63607;BME280;71992;52.478;-1.918;2023-11-19T02:10:53;98614.47;;;10.27;100.00
63607;BME280;71992;52.478;-1.918;2023-11-19T02:13:25;98602.97;;;10.27;100.00
63607;BME280;71992;52.478;-1.918;2023-11-19T02:16:00;98594.81;;;10.28;100.00
63607;BME280;71992;52.478;-1.918;2023-11-19T02:18:33;98597.84;;;10.23;100.00
63607;BME280;71992;52.478;-1.918;2023-11-19T02:21:04;98598.25;;;10.19;100.00
63607;BME280;71992;52.478;-1.918;2023-11-19T02:23:41;98606.69;;;10.24;100.00
63607;BME280;71992;52.478;-1.918;2023-11-19T02:26:16;98602.09;;;10.26;100.00
63607;BME280;71992;52.478;-1.918;2023-11-19T02:28:52;98598.47;;;10.27;100.00
63607;BME280;71992;52.478;-1.918;2023-11-19T02:31:23;98601.88;;;10.29;100.00
63607;BME280;71992;52.478;-1.918;2023-11-19T02:33:56;98607.94;;;10.31;100.00
63607;BME280;71992;52.478;-1.918;2023-11-19T02:36:29;98604.19;;;10.34;100.00
63607;BME280;71992;52.478;-1.918;2023-11-19T02:39:01;98603.34;;;10.33;100.00
63607;BME280;71992;52.478;-1.918;2023-11-19T02:41:37;98603.34;;;10.33;100.00
63607;BME280;71992;52.478;-1.918;2023-11-19T02:44:11;98602.59;;;10.31;100.00
63607;BME280;71992;52.478;-1.918;2023-11-19T02:46:42;98601.75;;;10.31;100.00
63607;BME280;71992;52.478;-1.918;2023-11-19T02:49:14;98603.44;;;10.32;100.00
63607;BME280;71992;52.478;-1.918;2023-11-19T02:51:48;98601.50;;;10.34;100.00
63607;BME280;71992;52.478;-1.918;2023-11-19T02:54:22;98593.63;;;10.32;100.00
63607;BME280;71992;52.478;-1.918;2023-11-19T02:56:55;98587.56;;;10.30;100.00
63607;BME280;71992;52.478;-1.918;2023-11-19T02:59:41;98562.44;;;10.33;100.00
63607;BME280;71992;52.478;-1.918;2023-11-19T03:02:11;98567.66;;;10.34;100.00
63607;BME280;71992;52.478;-1.918;2023-11-19T03:04:44;98585.94;;;10.39;100.00
63607;BME280;71992;52.478;-1.918;2023-11-19T03:07:15;98581.44;;;10.39;100.00
63607;BME280;71992;52.478;-1.918;2023-11-19T03:09:46;98579.78;;;10.38;100.00
63607;BME280;71992;52.478;-1.918;2023-11-19T03:12:19;98577.09;;;10.38;100.00
63607;BME280;71992;52.478;-1.918;2023-11-19T03:14:54;98573.72;;;10.36;100.00
63607;BME280;71992;52.478;-1.918;2023-11-19T03:17:27;98573.84;;;10.35;100.00
63607;BME280;71992;52.478;-1.918;2023-11-19T03:19:59;98569.47;;;10.34;100.00
63607;BME280;71992;52.478;-1.918;2023-11-19T03:22:34;98568.50;;;10.35;100.00
63607;BME280;71992;52.478;-1.918;2023-11-19T03:25:06;98565.81;;;10.35;100.00
63607;BME280;71992;52.478;-1.918;2023-11-19T03:27:37;98563.31;;;10.33;100.00
63607;BME280;71992;52.478;-1.918;2023-11-19T03:30:12;98556.16;;;10.34;100.00
63607;BME280;71992;52.478;-1.918;2023-11-19T03:32:45;98567.78;;;10.33;100.00
63607;BME280;71992;52.478;-1.918;2023-11-19T03:35:21;98566.94;;;10.32;100.00
63607;BME280;71992;52.478;-1.918;2023-11-19T03:37:52;98564.25;;;10.32;100.00
63607;BME280;71992;52.478;-1.918;2023-11-19T03:40:23;98570.59;;;10.31;100.00
63607;BME280;71992;52.478;-1.918;2023-11-19T03:42:58;98560.88;;;10.30;100.00
63607;BME280;71992;52.478;-1.918;2023-11-19T03:45:36;98552.88;;;10.30;100.00
63607;BME280;71992;52.478;-1.918;2023-11-19T03:48:09;98543.03;;;10.31;100.00
63607;BME280;71992;52.478;-1.918;2023-11-19T03:50:40;98554.69;;;10.30;100.00
63607;BME280;71992;52.478;-1.918;2023-11-19T03:53:12;98553.22;;;10.25;100.00
63607;BME280;71992;52.478;-1.918;2023-11-19T03:55:42;98544.50;;;10.23;100.00
63607;BME280;71992;52.478;-1.918;2023-11-19T03:58:15;98548.88;;;10.24;100.00
63607;BME280;71992;52.478;-1.918;2023-11-19T04:00:49;98540.25;;;10.21;100.00
63607;BME280;71992;52.478;-1.918;2023-11-19T04:03:20;98532.66;;;10.16;100.00
63607;BME280;71992;52.478;-1.918;2023-11-19T04:05:51;98539.22;;;10.12;100.00
63607;BME280;71992;52.478;-1.918;2023-11-19T04:08:24;98525.28;;;10.09;100.00
63607;BME280;71992;52.478;-1.918;2023-11-19T04:10:57;98521.06;;;10.06;100.00
63607;BME280;71992;52.478;-1.918;2023-11-19T04:13:28;98525.78;;;10.02;100.00
63607;BME280;71992;52.478;-1.918;2023-11-19T04:16:02;98544.59;;;10.01;100.00
63607;BME280;71992;52.478;-1.918;2023-11-19T04:18:35;98533.91;;;10.01;100.00
63607;BME280;71992;52.478;-1.918;2023-11-19T04:21:08;98543.75;;;10.00;100.00
63607;BME280;71992;52.478;-1.918;2023-11-19T04:23:44;98542.91;;;10.00;100.00
63607;BME280;71992;52.478;-1.918;2023-11-19T04:26:14;98558.19;;;9.98;100.00
63607;BME280;71992;52.478;-1.918;2023-11-19T04:28:46;98544.25;;;9.94;100.00
63607;BME280;71992;52.478;-1.918;2023-11-19T04:31:19;98556.72;;;9.94;100.00
63607;BME280;71992;52.478;-1.918;2023-11-19T04:33:51;98550.66;;;9.92;100.00
63607;BME280;71992;52.478;-1.918;2023-11-19T04:36:23;98538.31;;;9.91;100.00
63607;BME280;71992;52.478;-1.918;2023-11-19T04:38:55;98544.75;;;9.88;100.00
63607;BME280;71992;52.478;-1.918;2023-11-19T04:41:27;98535.88;;;9.88;100.00
63607;BME280;71992;52.478;-1.918;2023-11-19T04:43:58;98545.72;;;9.87;100.00
63607;BME280;71992;52.478;-1.918;2023-11-19T04:46:31;98552.88;;;9.87;100.00
63607;BME280;71992;52.478;-1.918;2023-11-19T04:49:02;98568.03;;;9.86;100.00
63607;BME280;71992;52.478;-1.918;2023-11-19T04:51:38;98572.38;;;9.87;100.00
63607;BME280;71992;52.478;-1.918;2023-11-19T04:54:10;98576.75;;;9.88;100.00
63607;BME280;71992;52.478;-1.918;2023-11-19T04:56:45;98578.09;;;9.82;100.00
63607;BME280;71992;52.478;-1.918;2023-11-19T04:59:16;98567.22;;;9.74;100.00
63607;BME280;71992;52.478;-1.918;2023-11-19T05:01:50;98558.97;;;9.66;100.00
63607;BME280;71992;52.478;-1.918;2023-11-19T05:04:21;98570.75;;;9.64;100.00
63607;BME280;71992;52.478;-1.918;2023-11-19T05:06:53;98554.88;;;9.62;100.00
63607;BME280;71992;52.478;-1.918;2023-11-19T05:09:24;98547.13;;;9.59;100.00
63607;BME280;71992;52.478;-1.918;2023-11-19T05:11:57;98536.94;;;9.53;100.00
63607;BME280;71992;52.478;-1.918;2023-11-19T05:14:29;98541.94;;;9.46;100.00
63607;BME280;71992;52.478;-1.918;2023-11-19T05:17:03;98547.16;;;9.48;100.00
63607;BME280;71992;52.478;-1.918;2023-11-19T05:19:35;98548.25;;;9.45;100.00
63607;BME280;71992;52.478;-1.918;2023-11-19T05:22:07;98552.97;;;9.41;100.00
63607;BME280;71992;52.478;-1.918;2023-11-19T05:24:38;98553.94;;;9.40;100.00
63607;BME280;71992;52.478;-1.918;2023-11-19T05:27:09;98553.94;;;9.40;100.00
63607;BME280;71992;52.478;-1.918;2023-11-19T05:29:41;98536.38;;;9.38;100.00
63607;BME280;71992;52.478;-1.918;2023-11-19T05:32:14;98536.59;;;9.35;100.00
63607;BME280;71992;52.478;-1.918;2023-11-19T05:34:48;98536.03;;;9.31;100.00
63607;BME280;71992;52.478;-1.918;2023-11-19T05:37:21;98532.84;;;9.26;100.00
63607;BME280;71992;52.478;-1.918;2023-11-19T05:39:54;98532.28;;;9.23;100.00
63607;BME280;71992;52.478;-1.918;2023-11-19T05:42:25;98528.03;;;9.20;100.00
63607;BME280;71992;52.478;-1.918;2023-11-19T05:44:57;98536.13;;;9.18;100.00
63607;BME280;71992;52.478;-1.918;2023-11-19T05:47:32;98531.66;;;9.19;100.00
63607;BME280;71992;52.478;-1.918;2023-11-19T05:50:03;98525.38;;;9.20;100.00
63607;BME280;71992;52.478;-1.918;2023-11-19T05:52:34;98548.13;;;9.24;100.00
63607;BME280;71992;52.478;-1.918;2023-11-19T05:55:07;98523.06;;;9.27;100.00
63607;BME280;71992;52.478;-1.918;2023-11-19T05:57:39;98528.25;;;9.28;100.00
63607;BME280;71992;52.478;-1.918;2023-11-19T06:00:11;98530.91;;;9.28;100.00
63607;BME280;71992;52.478;-1.918;2023-11-19T06:02:45;98519.44;;;9.28;100.00
63607;BME280;71992;52.478;-1.918;2023-11-19T06:05:18;98512.16;;;9.30;100.00
63607;BME280;71992;52.478;-1.918;2023-11-19T06:07:51;98515.78;;;9.29;100.00
63607;BME280;71992;52.478;-1.918;2023-11-19T06:10:22;98524.66;;;9.29;100.00
63607;BME280;71992;52.478;-1.918;2023-11-19T06:12:57;98527.88;;;9.33;100.00
63607;BME280;71992;52.478;-1.918;2023-11-19T06:15:33;98529.34;;;9.37;100.00
63607;BME280;71992;52.478;-1.918;2023-11-19T06:18:06;98533.47;;;9.41;100.00
63607;BME280;71992;52.478;-1.918;2023-11-19T06:20:41;98535.75;;;9.46;100.00
63607;BME280;71992;52.478;-1.918;2023-11-19T06:23:11;98537.22;;;9.50;100.00
63607;BME280;71992;52.478;-1.918;2023-11-19T06:25:42;98542.28;;;9.53;100.00
63607;BME280;71992;52.478;-1.918;2023-11-19T06:28:13;98538.28;;;9.58;100.00
63607;BME280;71992;52.478;-1.918;2023-11-19T06:30:44;98544.31;;;9.60;100.00
63607;BME280;71992;52.478;-1.918;2023-11-19T06:33:18;98552.09;;;9.64;100.00
63607;BME280;71992;52.478;-1.918;2023-11-19T06:35:52;98541.31;;;9.65;100.00
63607;BME280;71992;52.478;-1.918;2023-11-19T06:38:23;98541.16;;;9.67;100.00
63607;BME280;71992;52.478;-1.918;2023-11-19T06:40:54;98535.09;;;9.65;100.00
63607;BME280;71992;52.478;-1.918;2023-11-19T06:43:27;98539.47;;;9.66;100.00
63607;BME280;71992;52.478;-1.918;2023-11-19T06:46:04;98523.59;;;9.64;100.00
63607;BME280;71992;52.478;-1.918;2023-11-19T06:48:38;98503.28;;;9.63;100.00
63607;BME280;71992;52.478;-1.918;2023-11-19T06:51:10;98523.88;;;9.61;100.00
63607;BME280;71992;52.478;-1.918;2023-11-19T06:53:42;98534.03;;;9.56;100.00
63607;BME280;71992;52.478;-1.918;2023-11-19T06:56:20;98528.00;;;9.54;100.00
63607;BME280;71992;52.478;-1.918;2023-11-19T06:58:52;98528.97;;;9.53;100.00
63607;BME280;71992;52.478;-1.918;2023-11-19T07:01:25;98527.50;;;9.49;100.00
63607;BME280;71992;52.478;-1.918;2023-11-19T07:04:00;98522.06;;;9.50;100.00
63607;BME280;71992;52.478;-1.918;2023-11-19T07:06:39;98515.16;;;9.48;100.00
63607;BME280;71992;52.478;-1.918;2023-11-19T07:09:14;98519.88;;;9.44;100.00
63607;BME280;71992;52.478;-1.918;2023-11-19T07:11:48;98519.31;;;9.40;100.00
63607;BME280;71992;52.478;-1.918;2023-11-19T07:14:26;98530.06;;;9.39;100.00
63607;BME280;71992;52.478;-1.918;2023-11-19T07:16:57;98524.75;;;9.39;100.00
63607;BME280;71992;52.478;-1.918;2023-11-19T07:19:32;98532.72;;;9.39;100.00
63607;BME280;71992;52.478;-1.918;2023-11-19T07:22:04;98524.84;;;9.37;100.00
63607;BME280;71992;52.478;-1.918;2023-11-19T07:24:38;98524.00;;;9.37;100.00
63607;BME280;71992;52.478;-1.918;2023-11-19T07:27:10;98532.00;;;9.37;100.00
63607;BME280;71992;52.478;-1.918;2023-11-19T07:29:43;98524.63;;;9.40;100.00
63607;BME280;71992;52.478;-1.918;2023-11-19T07:32:14;98520.13;;;9.41;100.00
63607;BME280;71992;52.478;-1.918;2023-11-19T07:34:50;98528.13;;;9.41;100.00
63607;BME280;71992;52.478;-1.918;2023-11-19T07:37:20;98528.03;;;9.43;100.00
63607;BME280;71992;52.478;-1.918;2023-11-19T07:39:56;98519.88;;;9.44;100.00
63607;BME280;71992;52.478;-1.918;2023-11-19T07:42:35;98529.59;;;9.45;100.00
63607;BME280;71992;52.478;-1.918;2023-11-19T07:45:10;98526.06;;;9.45;100.00
63607;BME280;71992;52.478;-1.918;2023-11-19T07:47:44;98525.34;;;9.43;100.00
63607;BME280;71992;52.478;-1.918;2023-11-19T07:50:17;98519.31;;;9.40;100.00
63607;BME280;71992;52.478;-1.918;2023-11-19T07:52:49;98524.00;;;9.37;100.00
63607;BME280;71992;52.478;-1.918;2023-11-19T07:55:35;98514.47;;;9.34;100.00
63607;BME280;71992;52.478;-1.918;2023-11-19T07:58:06;98530.56;;;9.33;100.00
63607;BME280;71992;52.478;-1.918;2023-11-19T08:00:37;98534.94;;;9.34;100.00
63607;BME280;71992;52.478;-1.918;2023-11-19T08:03:12;98532.13;;;9.35;100.00
63607;BME280;71992;52.478;-1.918;2023-11-19T08:05:45;98536.59;;;9.35;100.00
63607;BME280;71992;52.478;-1.918;2023-11-19T08:08:16;98535.50;;;9.37;100.00
63607;BME280;71992;52.478;-1.918;2023-11-19T08:10:48;98532.72;;;9.39;100.00
63607;BME280;71992;52.478;-1.918;2023-11-19T08:13:20;98531.06;;;9.38;100.00
63607;BME280;71992;52.478;-1.918;2023-11-19T08:15:56;98535.28;;;9.40;100.00
63607;BME280;71992;52.478;-1.918;2023-11-19T08:18:31;98532.63;;;9.40;100.00
63607;BME280;71992;52.478;-1.918;2023-11-19T08:21:05;98533.47;;;9.41;100.00
63607;BME280;71992;52.478;-1.918;2023-11-19T08:23:38;98527.88;;;9.44;100.00
63607;BME280;71992;52.478;-1.918;2023-11-19T08:26:09;98534.03;;;9.45;100.00
63607;BME280;71992;52.478;-1.918;2023-11-19T08:28:40;98529.34;;;9.48;100.00
63607;BME280;71992;52.478;-1.918;2023-11-19T08:31:11;98523.75;;;9.51;100.00
63607;BME280;71992;52.478;-1.918;2023-11-19T08:33:43;98529.69;;;9.55;100.00
63607;BME280;71992;52.478;-1.918;2023-11-19T08:36:20;98527.75;;;9.57;100.00
63607;BME280;71992;52.478;-1.918;2023-11-19T08:38:51;98515.00;;;9.60;100.00
63607;BME280;71992;52.478;-1.918;2023-11-19T08:41:22;98513.94;;;9.63;100.00
63607;BME280;71992;52.478;-1.918;2023-11-19T08:43:53;98505.78;;;9.65;100.00
63607;BME280;71992;52.478;-1.918;2023-11-19T08:46:24;98500.47;;;9.65;100.00
63607;BME280;71992;52.478;-1.918;2023-11-19T08:48:55;98496.00;;;9.65;100.00
63607;BME280;71992;52.478;-1.918;2023-11-19T08:51:34;98496.69;;;9.67;100.00
63607;BME280;71992;52.478;-1.918;2023-11-19T08:54:05;98496.47;;;9.70;100.00
63607;BME280;71992;52.478;-1.918;2023-11-19T08:56:38;98495.47;;;9.71;100.00
63607;BME280;71992;52.478;-1.918;2023-11-19T08:59:08;98488.09;;;9.75;100.00
63607;BME280;71992;52.478;-1.918;2023-11-19T09:01:39;98483.31;;;9.78;100.00
63607;BME280;71992;52.478;-1.918;2023-11-19T09:04:11;98487.69;;;9.79;100.00
63607;BME280;71992;52.478;-1.918;2023-11-19T09:06:44;98477.88;;;9.80;100.00
63607;BME280;71992;52.478;-1.918;2023-11-19T09:09:15;98477.75;;;9.81;100.00
63607;BME280;71992;52.478;-1.918;2023-11-19T09:11:46;98470.22;;;9.87;100.00
63607;BME280;71992;52.478;-1.918;2023-11-19T09:14:17;98486.81;;;9.90;100.00
63607;BME280;71992;52.478;-1.918;2023-11-19T09:16:52;98498.66;;;9.97;100.00
63607;BME280;71992;52.478;-1.918;2023-11-19T09:19:23;98499.25;;;10.01;100.00
63607;BME280;71992;52.478;-1.918;2023-11-19T09:21:57;98502.50;;;10.04;100.00
63607;BME280;71992;52.478;-1.918;2023-11-19T09:24:28;98496.19;;;10.06;100.00
63607;BME280;71992;52.478;-1.918;2023-11-19T09:26:59;98500.41;;;10.08;100.00
63607;BME280;71992;52.478;-1.918;2023-11-19T09:29:35;98512.78;;;10.09;100.00
63607;BME280;71992;52.478;-1.918;2023-11-19T09:32:09;98509.41;;;10.07;100.00
63607;BME280;71992;52.478;-1.918;2023-11-19T09:34:43;98513.06;;;10.06;100.00
63607;BME280;71992;52.478;-1.918;2023-11-19T09:37:17;98509.53;;;10.06;100.00
63607;BME280;71992;52.478;-1.918;2023-11-19T09:39:48;98507.72;;;10.06;100.00
63607;BME280;71992;52.478;-1.918;2023-11-19T09:42:19;98506.03;;;10.05;100.00
63607;BME280;71992;52.478;-1.918;2023-11-19T09:44:51;98512.06;;;10.07;100.00
63607;BME280;71992;52.478;-1.918;2023-11-19T09:47:22;98523.34;;;10.11;100.00
63607;BME280;71992;52.478;-1.918;2023-11-19T09:49:53;98513.53;;;10.11;100.00
63607;BME280;71992;52.478;-1.918;2023-11-19T09:52:27;98508.75;;;10.15;100.00
63607;BME280;71992;52.478;-1.918;2023-11-19T09:55:09;98509.34;;;10.18;100.00
63607;BME280;71992;52.478;-1.918;2023-11-19T09:57:40;98508.25;;;10.21;100.00
63607;BME280;71992;52.478;-1.918;2023-11-19T10:00:14;98501.97;;;10.22;100.00
63607;BME280;71992;52.478;-1.918;2023-11-19T10:02:47;98500.84;;;10.24;100.00
63607;BME280;71992;52.478;-1.918;2023-11-19T10:05:20;98503.25;;;10.28;100.00
63607;BME280;71992;52.478;-1.918;2023-11-19T10:07:55;98505.91;;;10.28;100.00
63607;BME280;71992;52.478;-1.918;2023-11-19T10:10:27;98500.56;;;10.28;100.00
63607;BME280;71992;52.478;-1.918;2023-11-19T10:12:58;98493.41;;;10.28;100.00
63607;BME280;71992;52.478;-1.918;2023-11-19T10:15:35;98504.97;;;10.29;100.00
63607;BME280;71992;52.478;-1.918;2023-11-19T10:18:06;98504.97;;;10.29;100.00
63607;BME280;71992;52.478;-1.918;2023-11-19T10:20:37;98494.28;;;10.29;100.00
63607;BME280;71992;52.478;-1.918;2023-11-19T10:23:11;98501.34;;;10.30;100.00
63607;BME280;71992;52.478;-1.918;2023-11-19T10:25:43;98511.72;;;10.33;100.00
63607;BME280;71992;52.478;-1.918;2023-11-19T10:28:15;98487.72;;;10.33;100.00
63607;BME280;71992;52.478;-1.918;2023-11-19T10:30:48;98485.06;;;10.33;100.00
63607;BME280;71992;52.478;-1.918;2023-11-19T10:33:29;98487.72;;;10.33;100.00
63607;BME280;71992;52.478;-1.918;2023-11-19T10:36:00;98497.66;;;10.31;100.00
63607;BME280;71992;52.478;-1.918;2023-11-19T10:38:36;98490.66;;;10.30;100.00
63607;BME280;71992;52.478;-1.918;2023-11-19T10:41:07;98485.06;;;10.33;100.00
63607;BME280;71992;52.478;-1.918;2023-11-19T10:43:44;98477.66;;;10.36;100.00
63607;BME280;71992;52.478;-1.918;2023-11-19T10:46:15;98482.59;;;10.41;100.00
63607;BME280;71992;52.478;-1.918;2023-11-19T10:48:51;98478.28;;;10.50;100.00
63607;BME280;71992;52.478;-1.918;2023-11-19T10:51:24;98470.72;;;10.55;100.00
63607;BME280;71992;52.478;-1.918;2023-11-19T10:54:02;98466.53;;;10.62;100.00
63607;BME280;71992;52.478;-1.918;2023-11-19T10:56:36;98468.81;;;10.66;100.00
63607;BME280;71992;52.478;-1.918;2023-11-19T10:59:07;98480.34;;;10.67;100.00
63607;BME280;71992;52.478;-1.918;2023-11-19T11:01:44;98480.63;;;10.64;100.00
63607;BME280;71992;52.478;-1.918;2023-11-19T11:04:20;98470.22;;;10.61;100.00
63607;BME280;71992;52.478;-1.918;2023-11-19T11:06:54;98465.00;;;10.59;100.00
63607;BME280;71992;52.478;-1.918;2023-11-19T11:09:29;98468.25;;;10.63;100.00
63607;BME280;71992;52.478;-1.918;2023-11-19T11:12:01;98458.66;;;10.60;100.00
63607;BME280;71992;52.478;-1.918;2023-11-19T11:14:37;98455.88;;;10.62;100.00
63607;BME280;71992;52.478;-1.918;2023-11-19T11:17:09;98453.06;;;10.63;100.00
63607;BME280;71992;52.478;-1.918;2023-11-19T11:19:42;98456.97;;;10.59;100.00
63607;BME280;71992;52.478;-1.918;2023-11-19T11:22:14;98462.19;;;10.61;100.00
63607;BME280;71992;52.478;-1.918;2023-11-19T11:25:18;98470.94;;;10.63;100.00
63607;BME280;71992;52.478;-1.918;2023-11-19T11:28:13;98461.47;;;10.59;100.00
63607;BME280;71992;52.478;-1.918;2023-11-19T11:31:07;98463.00;;;10.52;100.00
63607;BME280;71992;52.478;-1.918;2023-11-19T11:33:57;98461.44;;;10.49;100.00
63607;BME280;71992;52.478;-1.918;2023-11-19T11:36:31;98451.84;;;10.47;100.00
63607;BME280;71992;52.478;-1.918;2023-11-19T11:39:06;98454.50;;;10.47;100.00
63607;BME280;71992;52.478;-1.918;2023-11-19T11:41:40;98451.84;;;10.47;100.00
63607;BME280;71992;52.478;-1.918;2023-11-19T11:44:12;98436.94;;;10.44;100.00
63607;BME280;71992;52.478;-1.918;2023-11-19T11:46:55;98447.63;;;10.44;100.00
63607;BME280;71992;52.478;-1.918;2023-11-19T11:49:28;98440.84;;;10.40;100.00
63607;BME280;71992;52.478;-1.918;2023-11-19T11:51:58;98444.50;;;10.39;100.00
63607;BME280;71992;52.478;-1.918;2023-11-19T11:54:31;98432.00;;;10.39;100.00
63607;BME280;71992;52.478;-1.918;2023-11-19T11:57:12;98433.56;;;10.42;100.00
63607;BME280;71992;52.478;-1.918;2023-11-19T11:59:52;98436.94;;;10.44;100.00
63607;BME280;71992;52.478;-1.918;2023-11-19T12:02:23;98438.66;;;10.45;100.00
63607;BME280;71992;52.478;-1.918;2023-11-19T12:05:00;98438.38;;;10.48;100.00
63607;BME280;71992;52.478;-1.918;2023-11-19T12:07:34;98432.09;;;10.49;100.00
63607;BME280;71992;52.478;-1.918;2023-11-19T12:10:08;98429.13;;;10.52;100.00
63607;BME280;71992;52.478;-1.918;2023-11-19T12:12:43;98435.19;;;10.54;100.00
63607;BME280;71992;52.478;-1.918;2023-11-19T12:15:14;98429.84;;;10.54;100.00
63607;BME280;71992;52.478;-1.918;2023-11-19T12:17:48;98435.03;;;10.56;100.00
63607;BME280;71992;52.478;-1.918;2023-11-19T12:20:23;98427.03;;;10.56;100.00
63607;BME280;71992;52.478;-1.918;2023-11-19T12:22:55;98418.91;;;10.57;100.00
63607;BME280;71992;52.478;-1.918;2023-11-19T12:25:29;98422.28;;;10.59;100.00
63607;BME280;71992;52.478;-1.918;2023-11-19T12:28:12;98422.16;;;10.61;100.00
63607;BME280;71992;52.478;-1.918;2023-11-19T12:30:45;98428.34;;;10.61;100.00
63607;BME280;71992;52.478;-1.918;2023-11-19T12:33:16;98425.53;;;10.63;100.00
63607;BME280;71992;52.478;-1.918;2023-11-19T12:35:48;98428.06;;;10.64;100.00
63607;BME280;71992;52.478;-1.918;2023-11-19T12:38:24;98422.59;;;10.66;100.00
63607;BME280;71992;52.478;-1.918;2023-11-19T12:41:04;98425.00;;;10.69;100.00
63607;BME280;71992;52.478;-1.918;2023-11-19T12:43:42;98425.69;;;10.71;100.00
63607;BME280;71992;52.478;-1.918;2023-11-19T12:46:19;98416.72;;;10.72;100.00
63607;BME280;71992;52.478;-1.918;2023-11-19T12:48:55;98421.78;;;10.75;100.00
63607;BME280;71992;52.478;-1.918;2023-11-19T12:51:31;98431.22;;;10.79;100.00
63607;BME280;71992;52.478;-1.918;2023-11-19T12:54:02;98430.94;;;10.82;100.00
63607;BME280;71992;52.478;-1.918;2023-11-19T12:56:33;98416.47;;;10.85;100.00
63607;BME280;71992;52.478;-1.918;2023-11-19T12:59:13;98426.19;;;10.86;100.00
63607;BME280;71992;52.478;-1.918;2023-11-19T13:01:54;98411.13;;;10.85;100.00
63607;BME280;71992;52.478;-1.918;2023-11-19T13:04:28;98414.69;;;10.85;100.00
63607;BME280;71992;52.478;-1.918;2023-11-19T13:06:59;98405.53;;;10.88;100.00
63607;BME280;71992;52.478;-1.918;2023-11-19T13:09:34;98420.28;;;10.92;100.00
63607;BME280;71992;52.478;-1.918;2023-11-19T13:12:13;98404.56;;;10.99;100.00
63607;BME280;71992;52.478;-1.918;2023-11-19T13:14:47;98417.25;;;11.06;100.00